Weather at Hendershot Airport [CLOSED]

Public forecast

Using degrees Fahrenheit for public forecast. Weather courtesy of forecast.io.

Closest aviation weather report (METAR) to Hendershot Airport

Closest report is Frederick Douglass Greater Rochester International Airport, 12.4 nm (22.9 km) SSE. Retrieved 2022/08/13 18:54 UTC (18 minutes ago):

KROC 131854Z 02011KT 10SM SCT050 BKN060 26/12 A3013 RMK AO2 SLP204 T02560117

Closest aviation forecast (TAF) to Hendershot Airport

Closest forecast is Frederick Douglass Greater Rochester International Airport, 12.4 nm (22.9 km) SSE. Retrieved 2022/08/13 18:22 UTC (50 minutes ago):

TAF KROC 131720Z 1318/1418 36008KT P6SM SCT060 FM140000 VRB03KT P6SM BKN250 FM141200 13004KT P6SM BKN150